Decoded Metar for SBFI (FOZ DO IGUACU in BRAZIL) (IATA:IGU) | Meteo·Mobile Aviation Weather
aviador You're here:

SBFI Decoded Metar

FOZ DO IGUACU in BRAZIL
Report Time2018-11-18 19:00:00
UTC Time2018-11-18 20:32:39
Flight Rules Old
Wind040° at 08 kt
W.Decomp.*RWY 14: 0.6 kt HW 8 kt LCW
W.Rank040° ranks 20
Current wind is above 040° avg. (5.3)
Visibility9999 m
Phenomena:N/A
Clouds:Scattered 010 Hf
Overcast 070 Hf
Expected CloudBase > 400 ft AGL from Temp-Dew spread
Ceiling7,000 ft
Temp21°C (ISA +8)
Dew Point20°C (94% RH)
QNH1010 hPa
Density Alt2,096 ft
Elevation797 ft
Report Wrong Elevation
Raw Report
METAR SBFI 181900Z 04008KT 9999 SCT010 OVC070 21/20 Q1010=

Extra information for SBFI:More info

Metar Taf Metar & Taf Last 4 Metars F.Rules Stats Wind Profile Meteogram Temp Stats Airport Information Weather charts Add Link Nearby VenuesMetar ALERT Operation Metar Decoded Social comments